sensor_id;sensor_type;location;lat;lon;timestamp;P1;durP1;ratioP1;P2;durP2;ratioP2
18931;SDS011;9598;50.954;3.112;2022-10-30T00:01:57;12.30;;;9.45;;
18931;SDS011;9598;50.954;3.112;2022-10-30T00:06:59;13.27;;;8.60;;
18931;SDS011;9598;50.954;3.112;2022-10-30T00:12:02;13.15;;;8.93;;
18931;SDS011;9598;50.954;3.112;2022-10-30T00:17:05;14.23;;;10.52;;
18931;SDS011;9598;50.954;3.112;2022-10-30T00:22:07;12.05;;;9.45;;
18931;SDS011;9598;50.954;3.112;2022-10-30T00:27:11;13.57;;;8.63;;
18931;SDS011;9598;50.954;3.112;2022-10-30T00:32:13;13.07;;;8.57;;
18931;SDS011;9598;50.954;3.112;2022-10-30T00:37:16;12.10;;;8.82;;
18931;SDS011;9598;50.954;3.112;2022-10-30T00:42:20;15.05;;;9.30;;
18931;SDS011;9598;50.954;3.112;2022-10-30T00:47:25;13.85;;;8.80;;
18931;SDS011;9598;50.954;3.112;2022-10-30T00:52:31;9.95;;;8.75;;
18931;SDS011;9598;50.954;3.112;2022-10-30T00:57:37;15.07;;;8.98;;
18931;SDS011;9598;50.954;3.112;2022-10-30T01:02:43;13.38;;;8.88;;
18931;SDS011;9598;50.954;3.112;2022-10-30T01:07:45;12.43;;;8.55;;
18931;SDS011;9598;50.954;3.112;2022-10-30T01:12:49;15.38;;;8.85;;
18931;SDS011;9598;50.954;3.112;2022-10-30T01:18:00;12.43;;;8.07;;
18931;SDS011;9598;50.954;3.112;2022-10-30T01:23:16;10.70;;;8.05;;
18931;SDS011;9598;50.954;3.112;2022-10-30T01:28:33;12.45;;;8.75;;
18931;SDS011;9598;50.954;3.112;2022-10-30T01:33:50;12.32;;;8.70;;
18931;SDS011;9598;50.954;3.112;2022-10-30T01:39:04;13.82;;;9.93;;
18931;SDS011;9598;50.954;3.112;2022-10-30T01:44:11;11.40;;;8.60;;
18931;SDS011;9598;50.954;3.112;2022-10-30T01:54:52;10.60;;;8.07;;
18931;SDS011;9598;50.954;3.112;2022-10-30T02:00:07;10.82;;;8.63;;
18931;SDS011;9598;50.954;3.112;2022-10-30T02:05:16;9.82;;;8.05;;
18931;SDS011;9598;50.954;3.112;2022-10-30T02:10:28;10.70;;;8.68;;
18931;SDS011;9598;50.954;3.112;2022-10-30T02:15:33;14.27;;;8.07;;
18931;SDS011;9598;50.954;3.112;2022-10-30T02:20:37;11.32;;;8.07;;
18931;SDS011;9598;50.954;3.112;2022-10-30T02:25:39;11.48;;;8.60;;
18931;SDS011;9598;50.954;3.112;2022-10-30T02:30:43;10.65;;;7.97;;
18931;SDS011;9598;50.954;3.112;2022-10-30T02:35:46;9.35;;;7.47;;
18931;SDS011;9598;50.954;3.112;2022-10-30T02:40:48;10.88;;;8.05;;
18931;SDS011;9598;50.954;3.112;2022-10-30T02:45:50;11.70;;;8.00;;
18931;SDS011;9598;50.954;3.112;2022-10-30T02:50:58;12.70;;;8.60;;
18931;SDS011;9598;50.954;3.112;2022-10-30T02:56:02;10.75;;;8.15;;
18931;SDS011;9598;50.954;3.112;2022-10-30T03:01:05;10.63;;;8.32;;
18931;SDS011;9598;50.954;3.112;2022-10-30T03:06:11;11.65;;;8.15;;
18931;SDS011;9598;50.954;3.112;2022-10-30T03:11:15;11.95;;;8.05;;
18931;SDS011;9598;50.954;3.112;2022-10-30T03:16:20;12.48;;;8.98;;
18931;SDS011;9598;50.954;3.112;2022-10-30T03:21:25;11.70;;;8.80;;
18931;SDS011;9598;50.954;3.112;2022-10-30T03:26:28;12.77;;;8.45;;
18931;SDS011;9598;50.954;3.112;2022-10-30T03:31:37;14.25;;;8.32;;
18931;SDS011;9598;50.954;3.112;2022-10-30T03:36:48;11.15;;;8.85;;
18931;SDS011;9598;50.954;3.112;2022-10-30T03:41:50;11.65;;;9.07;;
18931;SDS011;9598;50.954;3.112;2022-10-30T03:46:52;12.80;;;8.40;;
18931;SDS011;9598;50.954;3.112;2022-10-30T03:52:09;12.35;;;7.95;;
18931;SDS011;9598;50.954;3.112;2022-10-30T03:57:11;13.52;;;8.27;;
18931;SDS011;9598;50.954;3.112;2022-10-30T04:02:23;12.05;;;8.35;;
18931;SDS011;9598;50.954;3.112;2022-10-30T04:07:27;13.07;;;9.18;;
18931;SDS011;9598;50.954;3.112;2022-10-30T04:12:29;11.98;;;8.95;;
18931;SDS011;9598;50.954;3.112;2022-10-30T04:17:31;12.18;;;8.63;;
18931;SDS011;9598;50.954;3.112;2022-10-30T04:22:38;12.38;;;8.77;;
18931;SDS011;9598;50.954;3.112;2022-10-30T04:27:41;11.25;;;9.40;;
18931;SDS011;9598;50.954;3.112;2022-10-30T04:32:46;14.27;;;10.00;;
18931;SDS011;9598;50.954;3.112;2022-10-30T04:37:52;14.18;;;10.45;;
18931;SDS011;9598;50.954;3.112;2022-10-30T04:42:55;12.35;;;9.73;;
18931;SDS011;9598;50.954;3.112;2022-10-30T04:48:01;11.32;;;9.70;;
18931;SDS011;9598;50.954;3.112;2022-10-30T04:53:07;14.48;;;9.88;;
18931;SDS011;9598;50.954;3.112;2022-10-30T04:58:12;12.73;;;9.88;;
18931;SDS011;9598;50.954;3.112;2022-10-30T05:03:18;11.85;;;9.15;;
18931;SDS011;9598;50.954;3.112;2022-10-30T05:08:23;12.63;;;9.13;;
18931;SDS011;9598;50.954;3.112;2022-10-30T05:13:26;11.57;;;8.93;;
18931;SDS011;9598;50.954;3.112;2022-10-30T05:18:28;9.57;;;8.60;;
18931;SDS011;9598;50.954;3.112;2022-10-30T05:23:31;15.30;;;9.48;;
18931;SDS011;9598;50.954;3.112;2022-10-30T05:28:34;14.45;;;9.00;;
18931;SDS011;9598;50.954;3.112;2022-10-30T05:33:36;14.98;;;8.63;;
18931;SDS011;9598;50.954;3.112;2022-10-30T05:38:40;13.60;;;10.13;;
18931;SDS011;9598;50.954;3.112;2022-10-30T05:43:46;15.63;;;10.77;;
18931;SDS011;9598;50.954;3.112;2022-10-30T05:48:50;16.38;;;11.45;;
18931;SDS011;9598;50.954;3.112;2022-10-30T05:53:54;17.15;;;13.00;;
18931;SDS011;9598;50.954;3.112;2022-10-30T05:59:00;14.30;;;11.73;;
18931;SDS011;9598;50.954;3.112;2022-10-30T06:04:02;14.32;;;11.73;;
18931;SDS011;9598;50.954;3.112;2022-10-30T06:09:06;16.35;;;14.38;;
18931;SDS011;9598;50.954;3.112;2022-10-30T06:14:17;17.67;;;12.00;;
18931;SDS011;9598;50.954;3.112;2022-10-30T06:19:24;15.68;;;12.23;;
18931;SDS011;9598;50.954;3.112;2022-10-30T06:24:33;16.13;;;13.30;;
18931;SDS011;9598;50.954;3.112;2022-10-30T06:29:43;13.13;;;11.52;;
18931;SDS011;9598;50.954;3.112;2022-10-30T06:34:45;18.30;;;12.93;;
18931;SDS011;9598;50.954;3.112;2022-10-30T06:39:51;17.38;;;12.43;;
18931;SDS011;9598;50.954;3.112;2022-10-30T06:45:13;18.13;;;11.98;;
18931;SDS011;9598;50.954;3.112;2022-10-30T06:50:16;12.63;;;11.25;;
18931;SDS011;9598;50.954;3.112;2022-10-30T06:55:21;16.48;;;10.63;;
18931;SDS011;9598;50.954;3.112;2022-10-30T07:00:33;13.75;;;10.60;;
18931;SDS011;9598;50.954;3.112;2022-10-30T07:05:58;13.13;;;10.43;;
18931;SDS011;9598;50.954;3.112;2022-10-30T07:11:02;16.25;;;11.27;;
18931;SDS011;9598;50.954;3.112;2022-10-30T07:16:30;14.27;;;11.52;;
18931;SDS011;9598;50.954;3.112;2022-10-30T07:21:33;19.67;;;12.13;;
18931;SDS011;9598;50.954;3.112;2022-10-30T07:26:40;14.55;;;11.25;;
18931;SDS011;9598;50.954;3.112;2022-10-30T07:32:00;14.90;;;11.27;;
18931;SDS011;9598;50.954;3.112;2022-10-30T07:37:21;16.55;;;11.00;;
18931;SDS011;9598;50.954;3.112;2022-10-30T07:42:39;14.85;;;10.13;;
18931;SDS011;9598;50.954;3.112;2022-10-30T07:47:42;18.25;;;11.55;;
18931;SDS011;9598;50.954;3.112;2022-10-30T07:52:51;15.55;;;10.57;;
18931;SDS011;9598;50.954;3.112;2022-10-30T07:57:59;13.93;;;10.40;;
18931;SDS011;9598;50.954;3.112;2022-10-30T08:03:19;11.63;;;9.57;;
18931;SDS011;9598;50.954;3.112;2022-10-30T08:08:32;18.27;;;10.60;;
18931;SDS011;9598;50.954;3.112;2022-10-30T08:13:54;16.77;;;10.27;;
18931;SDS011;9598;50.954;3.112;2022-10-30T08:18:57;15.45;;;10.38;;
18931;SDS011;9598;50.954;3.112;2022-10-30T08:23:59;15.15;;;10.05;;
18931;SDS011;9598;50.954;3.112;2022-10-30T08:29:05;13.95;;;10.07;;
18931;SDS011;9598;50.954;3.112;2022-10-30T08:34:07;14.88;;;11.25;;
18931;SDS011;9598;50.954;3.112;2022-10-30T08:39:29;16.50;;;10.90;;
18931;SDS011;9598;50.954;3.112;2022-10-30T08:44:53;14.68;;;10.23;;
18931;SDS011;9598;50.954;3.112;2022-10-30T08:50:13;14.93;;;10.05;;
18931;SDS011;9598;50.954;3.112;2022-10-30T08:55:17;14.98;;;10.00;;
18931;SDS011;9598;50.954;3.112;2022-10-30T09:00:20;13.45;;;9.52;;
18931;SDS011;9598;50.954;3.112;2022-10-30T09:05:56;15.77;;;10.23;;
18931;SDS011;9598;50.954;3.112;2022-10-30T09:11:07;18.60;;;10.68;;
18931;SDS011;9598;50.954;3.112;2022-10-30T09:16:12;14.38;;;8.77;;
18931;SDS011;9598;50.954;3.112;2022-10-30T09:21:14;17.00;;;9.63;;
18931;SDS011;9598;50.954;3.112;2022-10-30T09:26:20;15.35;;;9.27;;
18931;SDS011;9598;50.954;3.112;2022-10-30T09:31:42;11.18;;;8.30;;
18931;SDS011;9598;50.954;3.112;2022-10-30T09:36:48;13.27;;;7.82;;
18931;SDS011;9598;50.954;3.112;2022-10-30T09:42:05;12.93;;;8.50;;
18931;SDS011;9598;50.954;3.112;2022-10-30T09:47:23;9.57;;;7.43;;
18931;SDS011;9598;50.954;3.112;2022-10-30T09:52:34;9.45;;;7.45;;
18931;SDS011;9598;50.954;3.112;2022-10-30T09:57:42;12.60;;;8.80;;
18931;SDS011;9598;50.954;3.112;2022-10-30T10:02:55;11.27;;;7.88;;
18931;SDS011;9598;50.954;3.112;2022-10-30T10:08:16;9.95;;;8.13;;
18931;SDS011;9598;50.954;3.112;2022-10-30T10:13:43;14.98;;;9.05;;
18931;SDS011;9598;50.954;3.112;2022-10-30T10:18:52;13.85;;;9.68;;
18931;SDS011;9598;50.954;3.112;2022-10-30T10:23:59;12.50;;;9.13;;
18931;SDS011;9598;50.954;3.112;2022-10-30T10:29:11;11.23;;;8.85;;
18931;SDS011;9598;50.954;3.112;2022-10-30T10:34:31;14.40;;;8.98;;
18931;SDS011;9598;50.954;3.112;2022-10-30T10:39:48;11.88;;;9.40;;
18931;SDS011;9598;50.954;3.112;2022-10-30T10:45:09;13.93;;;9.23;;
18931;SDS011;9598;50.954;3.112;2022-10-30T10:50:20;10.27;;;9.25;;
18931;SDS011;9598;50.954;3.112;2022-10-30T10:55:26;12.52;;;8.45;;
18931;SDS011;9598;50.954;3.112;2022-10-30T11:00:31;9.20;;;7.60;;
18931;SDS011;9598;50.954;3.112;2022-10-30T11:05:36;11.07;;;7.82;;
18931;SDS011;9598;50.954;3.112;2022-10-30T11:10:43;9.13;;;6.95;;
18931;SDS011;9598;50.954;3.112;2022-10-30T11:15:49;8.88;;;7.30;;
18931;SDS011;9598;50.954;3.112;2022-10-30T11:21:00;8.70;;;6.20;;
18931;SDS011;9598;50.954;3.112;2022-10-30T11:26:22;12.75;;;7.28;;
18931;SDS011;9598;50.954;3.112;2022-10-30T11:31:32;8.52;;;7.30;;
18931;SDS011;9598;50.954;3.112;2022-10-30T11:36:38;9.30;;;7.20;;
18931;SDS011;9598;50.954;3.112;2022-10-30T11:41:40;8.38;;;6.13;;
18931;SDS011;9598;50.954;3.112;2022-10-30T11:46:42;8.13;;;6.65;;
18931;SDS011;9598;50.954;3.112;2022-10-30T11:51:45;9.52;;;6.25;;
18931;SDS011;9598;50.954;3.112;2022-10-30T11:56:48;9.75;;;6.10;;
18931;SDS011;9598;50.954;3.112;2022-10-30T12:01:57;13.65;;;6.20;;
18931;SDS011;9598;50.954;3.112;2022-10-30T12:07:13;7.40;;;5.22;;
18931;SDS011;9598;50.954;3.112;2022-10-30T12:12:21;6.85;;;5.90;;
18931;SDS011;9598;50.954;3.112;2022-10-30T12:17:24;9.70;;;6.20;;
18931;SDS011;9598;50.954;3.112;2022-10-30T12:22:29;10.23;;;5.20;;
18931;SDS011;9598;50.954;3.112;2022-10-30T12:27:34;12.65;;;6.18;;
18931;SDS011;9598;50.954;3.112;2022-10-30T12:32:40;8.52;;;5.75;;
18931;SDS011;9598;50.954;3.112;2022-10-30T12:37:51;7.38;;;5.15;;
18931;SDS011;9598;50.954;3.112;2022-10-30T12:42:56;6.45;;;3.70;;
18931;SDS011;9598;50.954;3.112;2022-10-30T12:48:05;5.90;;;3.08;;
18931;SDS011;9598;50.954;3.112;2022-10-30T12:53:19;5.93;;;2.38;;
18931;SDS011;9598;50.954;3.112;2022-10-30T12:58:30;8.00;;;2.53;;
18931;SDS011;9598;50.954;3.112;2022-10-30T13:03:38;5.28;;;1.85;;
18931;SDS011;9598;50.954;3.112;2022-10-30T13:08:50;3.97;;;1.65;;
18931;SDS011;9598;50.954;3.112;2022-10-30T13:14:03;7.47;;;2.28;;
18931;SDS011;9598;50.954;3.112;2022-10-30T13:19:11;5.18;;;1.70;;
18931;SDS011;9598;50.954;3.112;2022-10-30T13:24:16;5.10;;;1.75;;
18931;SDS011;9598;50.954;3.112;2022-10-30T13:29:25;3.60;;;1.55;;
18931;SDS011;9598;50.954;3.112;2022-10-30T13:34:31;5.43;;;1.85;;
18931;SDS011;9598;50.954;3.112;2022-10-30T13:39:44;4.68;;;1.23;;
18931;SDS011;9598;50.954;3.112;2022-10-30T13:45:05;3.92;;;1.20;;
18931;SDS011;9598;50.954;3.112;2022-10-30T13:50:29;2.17;;;1.27;;
18931;SDS011;9598;50.954;3.112;2022-10-30T13:55:46;3.38;;;1.33;;
18931;SDS011;9598;50.954;3.112;2022-10-30T14:00:53;2.45;;;1.27;;
18931;SDS011;9598;50.954;3.112;2022-10-30T14:06:01;2.65;;;1.38;;
18931;SDS011;9598;50.954;3.112;2022-10-30T14:11:12;5.55;;;1.50;;
18931;SDS011;9598;50.954;3.112;2022-10-30T14:16:31;2.17;;;1.00;;
18931;SDS011;9598;50.954;3.112;2022-10-30T14:27:09;3.10;;;1.23;;
18931;SDS011;9598;50.954;3.112;2022-10-30T14:42:57;4.30;;;1.45;;
18931;SDS011;9598;50.954;3.112;2022-10-30T14:48:05;3.50;;;1.92;;
18931;SDS011;9598;50.954;3.112;2022-10-30T14:53:19;3.85;;;1.70;;
18931;SDS011;9598;50.954;3.112;2022-10-30T14:58:32;3.33;;;1.52;;
18931;SDS011;9598;50.954;3.112;2022-10-30T15:03:37;6.72;;;1.75;;
18931;SDS011;9598;50.954;3.112;2022-10-30T15:08:58;7.28;;;2.50;;
18931;SDS011;9598;50.954;3.112;2022-10-30T15:14:21;6.40;;;2.38;;
18931;SDS011;9598;50.954;3.112;2022-10-30T15:19:28;4.80;;;1.70;;
18931;SDS011;9598;50.954;3.112;2022-10-30T15:24:33;10.02;;;6.85;;
18931;SDS011;9598;50.954;3.112;2022-10-30T15:29:37;4.28;;;2.03;;
18931;SDS011;9598;50.954;3.112;2022-10-30T15:34:40;4.22;;;1.85;;
18931;SDS011;9598;50.954;3.112;2022-10-30T15:40:09;4.20;;;1.90;;
18931;SDS011;9598;50.954;3.112;2022-10-30T15:45:18;3.72;;;1.60;;
18931;SDS011;9598;50.954;3.112;2022-10-30T15:50:22;3.10;;;1.70;;
18931;SDS011;9598;50.954;3.112;2022-10-30T15:55:25;3.58;;;2.00;;
18931;SDS011;9598;50.954;3.112;2022-10-30T16:00:31;4.70;;;2.20;;
18931;SDS011;9598;50.954;3.112;2022-10-30T16:05:35;1.67;;;1.58;;
18931;SDS011;9598;50.954;3.112;2022-10-30T16:10:37;2.92;;;1.50;;
18931;SDS011;9598;50.954;3.112;2022-10-30T16:15:43;1.98;;;1.20;;
18931;SDS011;9598;50.954;3.112;2022-10-30T16:20:47;1.88;;;1.30;;
18931;SDS011;9598;50.954;3.112;2022-10-30T16:25:54;3.75;;;2.00;;
18931;SDS011;9598;50.954;3.112;2022-10-30T16:30:59;3.33;;;1.70;;
18931;SDS011;9598;50.954;3.112;2022-10-30T16:36:03;3.88;;;1.60;;
18931;SDS011;9598;50.954;3.112;2022-10-30T16:41:07;1.88;;;1.27;;
18931;SDS011;9598;50.954;3.112;2022-10-30T16:51:38;2.35;;;1.00;;
18931;SDS011;9598;50.954;3.112;2022-10-30T16:56:40;2.13;;;1.27;;
18931;SDS011;9598;50.954;3.112;2022-10-30T17:01:52;2.20;;;1.13;;
18931;SDS011;9598;50.954;3.112;2022-10-30T17:07:06;2.88;;;1.50;;
18931;SDS011;9598;50.954;3.112;2022-10-30T17:12:18;2.97;;;1.20;;
18931;SDS011;9598;50.954;3.112;2022-10-30T17:17:27;2.13;;;1.33;;
18931;SDS011;9598;50.954;3.112;2022-10-30T17:22:30;1.20;;;1.15;;
18931;SDS011;9598;50.954;3.112;2022-10-30T17:27:40;2.15;;;1.30;;
18931;SDS011;9598;50.954;3.112;2022-10-30T17:32:51;4.05;;;1.85;;
18931;SDS011;9598;50.954;3.112;2022-10-30T17:37:54;2.45;;;2.25;;
18931;SDS011;9598;50.954;3.112;2022-10-30T17:42:56;2.55;;;2.08;;
18931;SDS011;9598;50.954;3.112;2022-10-30T17:47:59;1.90;;;1.70;;
18931;SDS011;9598;50.954;3.112;2022-10-30T17:53:01;2.35;;;2.17;;
18931;SDS011;9598;50.954;3.112;2022-10-30T17:58:03;2.55;;;2.35;;
18931;SDS011;9598;50.954;3.112;2022-10-30T18:03:07;3.00;;;2.70;;
18931;SDS011;9598;50.954;3.112;2022-10-30T18:08:09;2.70;;;2.50;;
18931;SDS011;9598;50.954;3.112;2022-10-30T18:13:11;3.22;;;2.72;;
18931;SDS011;9598;50.954;3.112;2022-10-30T18:18:14;3.83;;;2.88;;
18931;SDS011;9598;50.954;3.112;2022-10-30T18:23:17;4.85;;;4.40;;
18931;SDS011;9598;50.954;3.112;2022-10-30T18:28:20;3.90;;;3.38;;
18931;SDS011;9598;50.954;3.112;2022-10-30T18:33:24;3.78;;;3.15;;
18931;SDS011;9598;50.954;3.112;2022-10-30T18:38:26;3.90;;;3.15;;
18931;SDS011;9598;50.954;3.112;2022-10-30T18:43:28;5.00;;;3.60;;
18931;SDS011;9598;50.954;3.112;2022-10-30T18:48:31;4.28;;;3.97;;
18931;SDS011;9598;50.954;3.112;2022-10-30T18:53:33;5.47;;;4.72;;
18931;SDS011;9598;50.954;3.112;2022-10-30T18:58:35;4.72;;;4.32;;
18931;SDS011;9598;50.954;3.112;2022-10-30T19:03:39;6.43;;;5.82;;
18931;SDS011;9598;50.954;3.112;2022-10-30T19:08:41;6.38;;;5.47;;
18931;SDS011;9598;50.954;3.112;2022-10-30T19:13:43;6.70;;;5.53;;
18931;SDS011;9598;50.954;3.112;2022-10-30T19:18:47;7.20;;;6.10;;
18931;SDS011;9598;50.954;3.112;2022-10-30T19:23:49;5.78;;;4.75;;
18931;SDS011;9598;50.954;3.112;2022-10-30T19:28:51;5.78;;;5.18;;
18931;SDS011;9598;50.954;3.112;2022-10-30T19:33:54;9.77;;;9.05;;
18931;SDS011;9598;50.954;3.112;2022-10-30T19:38:56;5.57;;;5.00;;
18931;SDS011;9598;50.954;3.112;2022-10-30T19:43:59;5.40;;;4.90;;
18931;SDS011;9598;50.954;3.112;2022-10-30T19:49:05;5.15;;;4.60;;
18931;SDS011;9598;50.954;3.112;2022-10-30T19:54:15;4.30;;;3.92;;
18931;SDS011;9598;50.954;3.112;2022-10-30T19:59:17;5.70;;;5.25;;
18931;SDS011;9598;50.954;3.112;2022-10-30T20:04:20;5.22;;;4.82;;
18931;SDS011;9598;50.954;3.112;2022-10-30T20:09:22;11.63;;;10.40;;
18931;SDS011;9598;50.954;3.112;2022-10-30T20:14:24;12.73;;;9.13;;
18931;SDS011;9598;50.954;3.112;2022-10-30T20:19:28;11.18;;;9.35;;
18931;SDS011;9598;50.954;3.112;2022-10-30T20:24:31;11.00;;;8.80;;
18931;SDS011;9598;50.954;3.112;2022-10-30T20:29:33;6.93;;;6.13;;
18931;SDS011;9598;50.954;3.112;2022-10-30T20:34:38;6.50;;;6.00;;
18931;SDS011;9598;50.954;3.112;2022-10-30T20:39:40;5.28;;;4.78;;
18931;SDS011;9598;50.954;3.112;2022-10-30T20:44:43;5.15;;;4.65;;
18931;SDS011;9598;50.954;3.112;2022-10-30T20:49:46;6.22;;;4.95;;
18931;SDS011;9598;50.954;3.112;2022-10-30T20:54:48;6.20;;;5.53;;
18931;SDS011;9598;50.954;3.112;2022-10-30T20:59:50;6.15;;;5.55;;
18931;SDS011;9598;50.954;3.112;2022-10-30T21:04:54;8.13;;;5.93;;
18931;SDS011;9598;50.954;3.112;2022-10-30T21:09:56;6.63;;;6.13;;
18931;SDS011;9598;50.954;3.112;2022-10-30T21:14:58;5.43;;;4.93;;
18931;SDS011;9598;50.954;3.112;2022-10-30T21:20:03;6.15;;;5.30;;
18931;SDS011;9598;50.954;3.112;2022-10-30T21:25:06;5.47;;;4.97;;
18931;SDS011;9598;50.954;3.112;2022-10-30T21:30:08;5.35;;;4.85;;
18931;SDS011;9598;50.954;3.112;2022-10-30T21:35:12;5.65;;;5.13;;
18931;SDS011;9598;50.954;3.112;2022-10-30T21:40:14;8.25;;;6.32;;
18931;SDS011;9598;50.954;3.112;2022-10-30T21:45:16;6.97;;;6.30;;
18931;SDS011;9598;50.954;3.112;2022-10-30T21:50:20;6.65;;;5.88;;
18931;SDS011;9598;50.954;3.112;2022-10-30T21:55:22;5.13;;;4.72;;
18931;SDS011;9598;50.954;3.112;2022-10-30T22:00:24;5.93;;;5.32;;
18931;SDS011;9598;50.954;3.112;2022-10-30T22:05:27;6.28;;;4.90;;
18931;SDS011;9598;50.954;3.112;2022-10-30T22:10:32;6.47;;;5.13;;
18931;SDS011;9598;50.954;3.112;2022-10-30T22:15:34;6.78;;;5.82;;
18931;SDS011;9598;50.954;3.112;2022-10-30T22:20:37;6.05;;;5.45;;
18931;SDS011;9598;50.954;3.112;2022-10-30T22:25:39;6.38;;;5.80;;
18931;SDS011;9598;50.954;3.112;2022-10-30T22:30:41;7.75;;;6.72;;
18931;SDS011;9598;50.954;3.112;2022-10-30T22:35:44;5.60;;;5.03;;
18931;SDS011;9598;50.954;3.112;2022-10-30T22:40:47;6.93;;;5.47;;
18931;SDS011;9598;50.954;3.112;2022-10-30T22:45:52;6.18;;;5.57;;
18931;SDS011;9598;50.954;3.112;2022-10-30T22:50:56;5.68;;;5.07;;
18931;SDS011;9598;50.954;3.112;2022-10-30T22:55:59;5.63;;;5.13;;
18931;SDS011;9598;50.954;3.112;2022-10-30T23:01:11;5.97;;;5.32;;
18931;SDS011;9598;50.954;3.112;2022-10-30T23:06:15;7.78;;;5.07;;
18931;SDS011;9598;50.954;3.112;2022-10-30T23:11:17;5.20;;;4.70;;
18931;SDS011;9598;50.954;3.112;2022-10-30T23:16:20;7.15;;;4.88;;
18931;SDS011;9598;50.954;3.112;2022-10-30T23:21:25;5.30;;;4.63;;
18931;SDS011;9598;50.954;3.112;2022-10-30T23:26:28;5.88;;;4.57;;
18931;SDS011;9598;50.954;3.112;2022-10-30T23:31:33;5.25;;;4.75;;
18931;SDS011;9598;50.954;3.112;2022-10-30T23:36:38;5.10;;;4.60;;
18931;SDS011;9598;50.954;3.112;2022-10-30T23:41:40;4.30;;;3.92;;
18931;SDS011;9598;50.954;3.112;2022-10-30T23:46:42;6.13;;;5.10;;
18931;SDS011;9598;50.954;3.112;2022-10-30T23:51:46;4.88;;;4.43;;
18931;SDS011;9598;50.954;3.112;2022-10-30T23:56:48;5.28;;;4.78;;
